Terminal Aerodrome Forecast
Issued by NWS Blacksburg, VA

Home | Current Version | Previous Version | Text Only | Print | Product List | Glossary On
Versions: 1 2 3 4 5 6 7 8 9 10 11 12
000
FTUS41 KRNK 240529
TAFLYH
TAF
KLYH 240529Z 2406/2506 05010KT 5SM -RA BR OVC035
      TEMPO 2408/2412 4SM -RA BR OVC009
     FM241300 06012KT 3SM RA BR OVC008
     FM250100 05010KT 1SM RA OVC001
     FM250300 03012KT 3SM RA OVC003=

USA.gov is the U.S. government's official web portal to all federal, state and local government web resources and services.